Time;durP1;ratioP1;P1;durP2;ratioP2;P2;SDS_P1;SDS_P2;PMS_P1;PMS_P2;Temp;Humidity;BMP_temperature;BMP_pressure;BME280_temperature;BME280_humidity;BME280_pressure;Samples;Min_cycle;Max_cycle;Signal;HPM_P1;HPM_P2
2021/04/12 00:00:16;;;;;;;11.45;4.82;;;;;;;2.23;69.41;102245.88;5040269;28;20083;-72
2021/04/12 00:02:47;;;;;;;10.82;4.57;;;;;;;2.19;69.18;102242.56;5083556;28;20083;-72
2021/04/12 00:05:35;;;;;;;16.75;4.65;;;;;;;2.21;68.26;102237.31;5073792;28;20054;-72
2021/04/12 00:08:06;;;;;;;16.80;5.00;;;;;;;2.13;68.75;102246.22;5080767;28;20052;-72
2021/04/12 00:11:05;;;;;;;12.18;4.78;;;;;;;2.09;69.28;102241.22;5055082;28;20048;-72
2021/04/12 00:13:40;;;;;;;8.02;4.18;;;;;;;2.05;68.46;102247.41;5048453;28;20062;-72
2021/04/12 00:16:20;;;;;;;13.32;4.50;;;;;;;1.94;69.47;102256.41;5068389;28;20567;-73
2021/04/12 00:18:59;;;;;;;10.65;4.07;;;;;;;1.90;70.18;102254.84;5082526;28;20160;-73
2021/04/12 00:21:44;;;;;;;12.88;5.13;;;;;;;1.88;69.96;102250.59;5072967;28;20408;-74
2021/04/12 00:24:16;;;;;;;9.88;4.50;;;;;;;1.89;70.03;102252.31;5100474;28;20056;-74
2021/04/12 00:27:05;;;;;;;9.50;4.07;;;;;;;1.87;70.00;102251.50;5081542;28;20047;-74
2021/04/12 00:29:44;;;;;;;10.63;4.32;;;;;;;1.87;69.86;102252.34;5081348;28;20048;-74
2021/04/12 00:32:25;;;;;;;16.52;4.22;;;;;;;1.85;70.82;102261.91;5075230;28;20121;-74
2021/04/12 00:35:17;;;;;;;12.95;4.57;;;;;;;1.87;69.96;102262.69;5071879;28;20051;-74
2021/04/12 00:37:52;;;;;;;11.40;4.22;;;;;;;1.88;70.26;102261.81;5066870;28;20056;-73
2021/04/12 00:40:29;;;;;;;12.82;3.97;;;;;;;1.86;70.65;102263.63;5076644;28;20056;-73
2021/04/12 00:43:10;;;;;;;15.10;4.63;;;;;;;1.84;70.53;102262.78;5083630;28;20097;-73
2021/04/12 00:45:54;;;;;;;12.00;4.40;;;;;;;1.77;71.10;102262.19;5081840;28;20138;-73
2021/04/12 00:48:48;;;;;;;12.05;4.38;;;;;;;1.74;70.46;102272.63;5084084;28;20108;-74
2021/04/12 00:51:42;;;;;;;11.50;4.50;;;;;;;1.74;70.76;102275.22;5078683;28;20060;-74
2021/04/12 00:54:26;;;;;;;13.90;4.63;;;;;;;1.67;71.31;102271.16;5083566;28;20141;-73
2021/04/12 00:57:04;;;;;;;7.57;4.10;;;;;;;1.65;71.38;102277.31;5077915;28;20044;-73
2021/04/12 00:59:58;;;;;;;8.70;4.20;;;;;;;1.69;70.82;102274.53;5086479;28;20125;-73
2021/04/12 01:02:38;;;;;;;14.40;4.00;;;;;;;1.68;71.80;102275.44;5051543;28;20048;-73
2021/04/12 01:05:23;;;;;;;;;;;;;;;1.66;71.20;102282.41;5085423;28;20393;-73
2021/04/12 01:08:12;;;;;;;8.10;4.00;;;;;;;1.65;71.43;102280.72;5067634;28;19924;-73
2021/04/12 01:11:16;;;;;;;10.35;4.55;;;;;;;1.61;71.01;102278.28;5089317;28;20096;-72
2021/04/12 01:14:22;;;;;;;13.00;4.47;;;;;;;1.49;70.94;102277.81;5079990;28;20051;-73
2021/04/12 01:17:15;;;;;;;8.45;4.18;;;;;;;1.49;70.94;102288.16;5025617;28;20045;-74
2021/04/12 01:19:50;;;;;;;10.35;4.30;;;;;;;1.42;71.16;102289.25;5081527;28;20060;-71
2021/04/12 01:22:58;;;;;;;17.48;4.32;;;;;;;1.35;71.82;102286.03;5090786;28;20055;-71
2021/04/12 01:26:17;;;;;;;12.63;5.07;;;;;;;1.34;72.46;102291.25;5070081;28;20442;-71
2021/04/12 01:28:58;;;;;;;13.15;4.95;;;;;;;1.40;72.62;102297.97;4988163;28;20050;-72
2021/04/12 01:31:55;;;;;;;13.30;5.75;;;;;;;1.41;72.99;102295.31;5043859;28;20086;-71
2021/04/12 01:34:33;;;;;;;16.98;6.28;;;;;;;1.41;73.45;102291.88;5073421;28;20098;-71
2021/04/12 01:37:30;;;;;;;12.70;5.68;;;;;;;1.42;72.67;102294.44;5078827;28;20124;-72
2021/04/12 01:40:24;;;;;;;12.75;5.45;;;;;;;1.42;73.02;102297.00;5073083;28;20146;-71
2021/04/12 01:43:05;;;;;;;10.15;5.30;;;;;;;1.41;72.69;102297.91;5072999;28;20390;-71
2021/04/12 01:45:48;;;;;;;12.80;6.18;;;;;;;1.42;72.70;102303.94;5061845;28;20079;-71
2021/04/12 01:48:37;;;;;;;16.35;6.18;;;;;;;1.41;72.80;102304.81;5057691;28;20074;-72
2021/04/12 01:51:18;;;;;;;16.13;6.35;;;;;;;1.41;72.67;102309.97;5078811;28;20494;-72
2021/04/12 01:54:29;;;;;;;19.67;6.63;;;;;;;1.34;73.40;102305.03;5058490;28;20066;-71
2021/04/12 01:57:07;;;;;;;14.23;7.00;;;;;;;1.34;73.27;102314.53;5067689;28;20139;-71
2021/04/12 01:59:36;;;;;;;14.85;7.05;;;;;;;1.37;73.48;102311.81;5053421;28;20056;-72
2021/04/12 02:02:40;;;;;;;15.85;7.30;;;;;;;1.37;72.49;102311.81;5083592;28;20108;-72
2021/04/12 02:05:30;;;;;;;14.63;7.18;;;;;;;1.34;73.62;102311.94;5072156;28;20044;-73
2021/04/12 02:07:59;;;;;;;13.85;7.03;;;;;;;1.33;73.53;102315.41;5077244;28;20135;-72
2021/04/12 02:10:43;;;;;;;13.27;7.18;;;;;;;1.31;74.15;102314.63;5042020;28;20055;-72
2021/04/12 02:14:00;;;;;;;17.85;7.75;;;;;;;1.24;74.42;102316.56;5077788;28;20105;-72
2021/04/12 02:16:59;;;;;;;16.90;6.80;;;;;;;1.32;73.97;102318.91;5002325;28;20083;-72
2021/04/12 02:19:57;;;;;;;17.38;7.30;;;;;;;1.30;74.33;102321.53;5079298;28;20059;-72
2021/04/12 02:22:53;;;;;;;22.95;7.03;;;;;;;1.32;73.75;102318.91;5057671;28;20105;-72
2021/04/12 02:25:44;;;;;;;11.95;6.35;;;;;;;1.29;73.99;102331.91;5065571;28;20048;-72
2021/04/12 02:28:39;;;;;;;15.48;6.40;;;;;;;1.32;73.25;102326.66;5074134;28;20080;-72
2021/04/12 02:31:33;;;;;;;16.27;7.00;;;;;;;1.28;73.91;102333.66;5082644;28;20080;-73
2021/04/12 02:34:10;;;;;;;16.98;7.07;;;;;;;1.26;73.48;102335.47;5076355;28;20101;-72
2021/04/12 02:37:23;;;;;;;13.77;7.55;;;;;;;1.21;74.19;102331.31;5083123;28;20534;-74
2021/04/12 02:40:05;;;;;;;18.02;6.82;;;;;;;1.24;73.68;102334.66;4981352;28;20144;-73
2021/04/12 02:42:59;;;;;;;14.68;7.25;;;;;;;1.18;74.24;102338.28;5084074;28;20937;-74
2021/04/12 02:46:01;;;;;;;12.98;6.43;;;;;;;1.19;74.80;102341.69;5067113;28;20056;-74
2021/04/12 02:48:38;;;;;;;17.13;7.15;;;;;;;1.15;74.43;102340.94;5069530;28;20048;-74
2021/04/12 02:51:17;;;;;;;16.60;6.18;;;;;;;1.14;74.58;102333.25;5058828;28;20052;-74
2021/04/12 02:54:22;;;;;;;17.00;6.88;;;;;;;1.17;74.53;102346.06;5085041;28;20083;-74
2021/04/12 02:57:25;;;;;;;17.35;6.95;;;;;;;1.20;74.55;102356.34;5063558;28;20131;-74
2021/04/12 03:00:15;;;;;;;15.50;6.78;;;;;;;1.21;75.01;102345.09;5078897;28;20264;-74
2021/04/12 03:03:19;;;;;;;16.38;6.30;;;;;;;1.22;74.47;102351.13;5057863;28;21057;-74
2021/04/12 03:06:06;;;;;;;18.38;7.07;;;;;;;1.24;74.20;102365.69;5082400;28;20060;-75
2021/04/12 03:08:55;;;;;;;10.60;6.30;;;;;;;1.23;73.70;102358.81;5054719;28;20048;-74
2021/04/12 03:11:53;;;;;;;17.80;6.82;;;;;;;1.24;73.49;102357.94;5082162;28;20406;-74
2021/04/12 03:14:34;;;;;;;18.58;7.07;;;;;;;1.21;74.01;102368.34;5060479;28;20055;-74
2021/04/12 03:17:19;;;;;;;14.20;6.53;;;;;;;1.18;74.63;102366.72;5087633;28;20105;-74
2021/04/12 03:20:03;;;;;;;15.98;7.28;;;;;;;1.21;75.04;102370.09;5077372;28;20056;-74
2021/04/12 03:23:01;;;;;;;20.23;7.38;;;;;;;1.22;74.30;102371.81;5081400;28;20105;-74
2021/04/12 03:25:57;;;;;;;16.42;6.82;;;;;;;1.19;74.77;102373.56;5079868;28;20055;-74
2021/04/12 03:28:23;;;;;;;17.30;7.40;;;;;;;1.22;75.13;102361.47;5099290;28;20551;-74
2021/04/12 03:31:03;;;;;;;18.98;7.03;;;;;;;1.19;75.48;102368.38;5062892;28;20167;-74
2021/04/12 03:33:48;;;;;;;17.27;7.30;;;;;;;1.21;75.56;102376.09;5082394;28;20052;-74
2021/04/12 03:36:49;;;;;;;15.05;6.32;;;;;;;1.21;74.42;102383.84;5045928;28;20129;-74
2021/04/12 03:39:25;;;;;;;11.77;6.25;;;;;;;1.21;74.56;102380.44;5066562;28;20048;-74
2021/04/12 03:42:10;;;;;;;19.23;7.47;;;;;;;1.13;74.85;102384.09;5061877;28;20541;-74
2021/04/12 03:45:00;;;;;;;14.07;7.22;;;;;;;1.12;75.79;102381.59;5079802;28;20047;-74
2021/04/12 03:47:58;;;;;;;13.98;6.93;;;;;;;1.17;74.90;102388.28;5073803;28;20102;-74
2021/04/12 03:50:43;;;;;;;16.13;7.57;;;;;;;1.18;75.05;102378.81;5081439;28;20113;-74
2021/04/12 03:53:38;;;;;;;14.93;7.38;;;;;;;1.19;74.38;102383.91;5060119;28;20105;-74
2021/04/12 03:56:41;;;;;;;21.60;7.50;;;;;;;1.21;75.75;102378.69;5064615;28;20058;-73
2021/04/12 03:59:18;;;;;;;29.20;8.20;;;;;;;1.20;75.75;102384.78;5073988;28;20559;-73
2021/04/12 04:02:31;;;;;;;19.10;8.20;;;;;;;1.22;75.35;102389.91;5078222;28;20056;-73
2021/04/12 04:05:25;;;;;;;22.98;7.70;;;;;;;1.27;75.57;102394.00;5067525;28;20121;-74
2021/04/12 04:08:22;;;;;;;25.00;8.25;;;;;;;1.34;75.22;102392.94;5058340;28;20109;-74
2021/04/12 04:11:03;;;;;;;18.30;9.32;;;;;;;1.31;75.44;102393.03;5075201;28;20060;-75
2021/04/12 04:13:47;;;;;;;23.88;8.82;;;;;;;1.33;75.06;102395.56;5074742;28;20060;-74
2021/04/12 04:16:51;;;;;;;17.70;8.35;;;;;;;1.32;75.68;102399.88;5075207;28;20101;-74
2021/04/12 04:19:52;;;;;;;16.13;8.50;;;;;;;1.30;75.34;102398.25;5083987;28;20051;-74
2021/04/12 04:22:51;;;;;;;13.32;7.57;;;;;;;1.31;74.76;102407.69;5072255;28;20121;-75
2021/04/12 04:25:52;;;;;;;15.75;8.10;;;;;;;1.26;75.70;102407.00;5093168;28;20052;-74
2021/04/12 04:28:31;;;;;;;25.00;8.77;;;;;;;1.24;75.90;102411.38;5029925;28;20052;-75
2021/04/12 04:31:47;;;;;;;17.13;7.90;;;;;;;1.25;76.04;102413.06;5080495;28;20561;-73
2021/04/12 04:34:25;;;;;;;17.02;9.65;;;;;;;1.24;76.37;102416.53;5000853;28;20153;-72
2021/04/12 04:37:18;;;;;;;17.25;8.57;;;;;;;1.30;76.46;102419.78;5010058;28;20084;-73
2021/04/12 04:40:12;;;;;;;19.02;8.80;;;;;;;1.27;76.04;102419.03;5058502;28;20063;-73
2021/04/12 04:42:59;;;;;;;16.70;8.57;;;;;;;1.31;76.24;102424.06;5094998;28;20124;-73
2021/04/12 04:45:54;;;;;;;16.23;8.15;;;;;;;1.31;76.32;102425.78;5083782;28;20043;-73
2021/04/12 04:48:40;;;;;;;20.80;8.48;;;;;;;1.29;76.78;102428.41;5073661;28;20121;-72
2021/04/12 04:51:27;;;;;;;17.73;8.75;;;;;;;1.30;76.79;102426.69;5080867;28;20086;-73
2021/04/12 04:54:15;;;;;;;18.42;9.07;;;;;;;1.27;76.84;102432.78;5090829;28;20101;-72
2021/04/12 04:57:09;;;;;;;21.05;8.57;;;;;;;1.32;76.61;102432.66;5069793;28;20112;-73
2021/04/12 04:59:50;;;;;;;14.88;8.23;;;;;;;1.32;76.51;102428.31;5084740;28;20105;-72
2021/04/12 05:02:30;;;;;;;18.40;8.38;;;;;;;1.37;76.23;102435.94;5059522;28;20055;-72
2021/04/12 05:05:33;;;;;;;12.38;7.68;;;;;;;1.37;75.90;102439.38;5087008;28;20070;-72
2021/04/12 05:08:19;;;;;;;17.15;7.68;;;;;;;1.45;75.57;102440.88;5080952;28;20571;-72
2021/04/12 05:11:08;;;;;;;17.30;8.07;;;;;;;1.44;76.16;102439.19;5074975;28;20054;-73
2021/04/12 05:13:53;;;;;;;;;;;;;;;1.44;75.91;102439.19;5073104;28;20047;-73
2021/04/12 05:16:30;;;;;;;14.65;7.82;;;;;;;1.41;76.54;102445.28;5088632;28;20001;-73
2021/04/12 05:19:30;;;;;;;13.27;7.68;;;;;;;1.39;76.14;102444.50;5078395;28;20059;-73
2021/04/12 05:22:16;;;;;;;11.43;6.63;;;;;;;1.43;76.59;102448.69;5083450;28;21044;-73
2021/04/12 05:25:02;;;;;;;17.48;7.93;;;;;;;1.47;76.49;102452.00;5075668;28;20087;-74
2021/04/12 05:27:57;;;;;;;14.07;6.93;;;;;;;1.53;77.03;102452.69;5083163;28;20090;-74
2021/04/12 05:30:38;;;;;;;15.88;6.85;;;;;;;1.54;76.40;102456.09;5078582;28;20060;-73
2021/04/12 05:33:09;;;;;;;14.43;6.53;;;;;;;1.51;76.86;102454.47;5085680;28;20051;-73
2021/04/12 05:35:57;;;;;;;12.20;6.18;;;;;;;1.56;76.76;102457.75;5085843;28;20117;-74
2021/04/12 05:38:42;;;;;;;;;;;;;;;1.58;76.74;102461.13;5079642;28;20048;-74
2021/04/12 05:41:25;;;;;;;14.13;6.35;;;;;;;1.56;76.77;102464.66;5072235;28;19924;-74
2021/04/12 05:43:55;;;;;;;11.52;6.32;;;;;;;1.61;76.60;102469.69;5088967;28;20083;-74
2021/04/12 05:46:38;;;;;;;13.63;6.13;;;;;;;1.64;77.01;102460.09;5077114;28;20051;-74
2021/04/12 05:49:40;;;;;;;11.70;6.78;;;;;;;1.70;77.17;102470.25;5083424;28;20105;-74
2021/04/12 05:52:35;;;;;;;14.23;6.15;;;;;;;1.73;76.45;102472.75;5073485;28;20048;-74
2021/04/12 05:55:07;;;;;;;9.88;5.68;;;;;;;1.76;76.91;102467.50;5058314;28;20075;-75
2021/04/12 05:57:38;;;;;;;12.98;5.65;;;;;;;1.81;76.89;102477.69;5090143;28;20093;-74
2021/04/12 06:00:22;;;;;;;13.40;5.32;;;;;;;1.82;76.70;102483.69;5085293;28;20052;-75
2021/04/12 06:03:08;;;;;;;10.00;5.18;;;;;;;1.88;76.51;102484.38;5086629;28;20051;-74
2021/04/12 06:06:12;;;;;;;11.82;5.45;;;;;;;1.86;76.59;102493.06;5064739;28;20055;-74
2021/04/12 06:08:56;;;;;;;12.25;5.40;;;;;;;1.92;76.88;102498.03;5059921;28;20040;-74
2021/04/12 06:12:03;;;;;;;13.52;5.97;;;;;;;1.99;76.16;102499.53;5056919;28;20051;-72
2021/04/12 06:15:06;;;;;;;11.10;4.93;;;;;;;2.06;76.26;102495.84;5062638;28;20052;-73
2021/04/12 06:17:44;;;;;;;12.23;5.47;;;;;;;2.07;76.29;102501.88;5074906;28;20446;-73
2021/04/12 06:20:46;;;;;;;12.23;5.28;;;;;;;2.11;75.69;102501.72;5079197;28;20109;-73
2021/04/12 06:23:37;;;;;;;14.05;5.25;;;;;;;2.21;75.82;102511.78;5069986;28;20058;-72
2021/04/12 06:26:25;;;;;;;12.90;4.93;;;;;;;2.27;76.02;102509.81;5069528;28;20458;-72
2021/04/12 06:29:00;;;;;;;18.53;6.10;;;;;;;2.35;75.89;102510.44;5094132;28;20590;-72
2021/04/12 06:31:48;;;;;;;11.68;5.20;;;;;;;2.42;75.48;102512.81;5067171;28;20056;-73
2021/04/12 06:34:39;;;;;;;10.45;4.72;;;;;;;2.48;75.51;102518.59;5069175;28;20061;-73
2021/04/12 06:37:38;;;;;;;15.80;4.45;;;;;;;2.52;74.93;102520.19;5091263;28;20051;-72
2021/04/12 06:40:41;;;;;;;10.70;4.35;;;;;;;2.55;75.08;102532.22;5065834;28;20044;-73
2021/04/12 06:43:37;;;;;;;9.88;4.80;;;;;;;2.61;74.81;102536.31;5067697;28;21493;-72
2021/04/12 06:46:22;;;;;;;10.00;4.45;;;;;;;2.72;74.81;102545.41;5080882;28;20048;-72
2021/04/12 06:49:32;;;;;;;9.07;4.13;;;;;;;2.82;74.64;102540.75;5069164;28;20048;-72
2021/04/12 06:52:19;;;;;;;12.98;4.43;;;;;;;2.79;74.24;102547.81;5091648;28;20063;-71
2021/04/12 06:55:13;;;;;;;9.67;4.30;;;;;;;2.80;73.83;102552.09;5081095;28;20052;-70
2021/04/12 06:58:17;;;;;;;8.35;4.18;;;;;;;2.72;73.71;102554.94;5087259;28;20798;-71
2021/04/12 07:01:04;;;;;;;9.23;4.68;;;;;;;2.65;74.36;102558.66;5072167;28;20129;-72
2021/04/12 07:03:49;;;;;;;18.70;4.90;;;;;;;2.68;74.41;102559.38;5067021;28;20415;-72
2021/04/12 07:06:42;;;;;;;12.00;5.03;;;;;;;2.65;74.68;102559.50;5090925;28;20442;-72
2021/04/12 07:09:35;;;;;;;10.60;4.68;;;;;;;2.63;74.70;102563.88;5092996;28;20101;-72
2021/04/12 07:12:13;;;;;;;16.38;5.18;;;;;;;2.69;75.11;102561.09;5089772;28;20056;-73
2021/04/12 07:15:20;;;;;;;12.30;4.40;;;;;;;2.61;75.38;102565.69;5087023;28;20056;-72
2021/04/12 07:18:10;;;;;;;18.73;5.40;;;;;;;2.63;75.43;102560.47;5059378;28;20141;-72
2021/04/12 07:21:13;;;;;;;10.25;4.18;;;;;;;2.62;75.18;102567.38;5097750;28;20055;-73
2021/04/12 07:24:02;;;;;;;12.95;4.38;;;;;;;2.70;75.39;102565.34;5088427;28;20121;-73
2021/04/12 07:26:46;;;;;;;;;;;;;;;2.86;75.92;102564.81;5095225;28;20839;-73
2021/04/12 07:29:49;;;;;;;9.23;4.00;;;;;;;2.93;75.39;102572.34;5078617;28;19924;-73
2021/04/12 07:32:54;;;;;;;9.25;3.70;;;;;;;2.96;74.72;102571.41;5082055;28;20101;-73
2021/04/12 07:35:35;;;;;;;10.32;4.60;;;;;;;3.03;74.38;102575.44;5079637;28;20055;-74
2021/04/12 07:38:37;;;;;;;6.82;4.10;;;;;;;3.11;74.29;102580.38;5096367;28;20452;-73
2021/04/12 07:41:41;;;;;;;8.07;4.00;;;;;;;3.15;74.67;102568.97;5085898;28;20055;-74
2021/04/12 07:44:42;;;;;;;17.60;4.25;;;;;;;3.31;73.50;102583.09;5062206;28;20469;-73
2021/04/12 07:47:45;;;;;;;11.25;3.30;;;;;;;3.48;73.88;102579.03;5084229;28;20048;-73
2021/04/12 07:50:34;;;;;;;12.20;3.28;;;;;;;3.57;72.63;102581.28;5087139;28;20055;-73
2021/04/12 07:53:37;;;;;;;7.55;3.28;;;;;;;3.62;71.79;102576.75;5078855;28;20048;-73
2021/04/12 07:56:12;;;;;;;6.95;2.72;;;;;;;3.69;71.81;102593.78;5099956;28;20040;-73
2021/04/12 07:58:53;;;;;;;11.10;2.97;;;;;;;3.90;72.49;102591.25;5073933;28;20051;-72
2021/04/12 08:01:47;;;;;;;11.93;3.80;;;;;;;4.08;73.00;102598.34;5085295;28;20129;-72
2021/04/12 08:04:38;;;;;;;9.15;3.10;;;;;;;4.19;71.27;102592.72;5074649;28;20059;-73
2021/04/12 08:07:31;;;;;;;7.65;3.22;;;;;;;4.25;70.27;102605.44;5095823;28;20047;-72
2021/04/12 08:10:42;;;;;;;8.02;3.58;;;;;;;4.13;70.37;102604.19;5062462;28;20652;-73
2021/04/12 08:13:30;;;;;;;10.00;3.00;;;;;;;4.16;69.90;102609.28;5095867;28;20464;-72
2021/04/12 08:16:50;;;;;;;4.60;2.30;;;;;;;4.04;69.02;102619.28;5080873;28;20140;-72
2021/04/12 08:19:48;;;;;;;7.05;2.80;;;;;;;4.38;69.85;102610.16;5077677;28;20084;-72
2021/04/12 08:22:39;;;;;;;11.75;2.60;;;;;;;4.49;68.74;102613.19;5076190;28;20453;-72
2021/04/12 08:25:26;;;;;;;7.45;3.25;;;;;;;4.69;68.19;102615.78;5061241;28;20048;-73
2021/04/12 08:28:23;;;;;;;9.77;3.72;;;;;;;4.99;67.74;102612.78;5074287;28;20086;-71
2021/04/12 08:31:28;;;;;;;6.35;2.50;;;;;;;5.31;67.17;102615.75;5084940;28;20105;-71
2021/04/12 08:34:23;;;;;;;8.02;2.38;;;;;;;5.57;66.67;102618.91;5079651;28;20136;-72
2021/04/12 08:37:04;;;;;;;5.55;2.28;;;;;;;5.77;65.42;102618.88;5002547;28;20054;-72
2021/04/12 08:39:48;;;;;;;7.65;1.88;;;;;;;6.13;65.03;102624.16;5061874;28;20047;-72
2021/04/12 08:42:38;;;;;;;10.23;2.15;;;;;;;6.33;64.79;102620.59;5083994;28;20048;-71
2021/04/12 08:45:19;;;;;;;6.38;1.88;;;;;;;5.92;63.66;102620.75;5061941;28;20060;-73
2021/04/12 08:47:59;;;;;;;7.53;1.73;;;;;;;6.02;62.12;102618.59;5078285;28;20110;-72
2021/04/12 08:51:01;;;;;;;7.90;1.55;;;;;;;6.39;61.08;102624.66;5069049;28;20540;-72
2021/04/12 08:53:39;;;;;;;4.00;1.30;;;;;;;6.34;58.62;102622.25;5070599;28;20750;-71
2021/04/12 08:56:38;;;;;;;3.97;1.30;;;;;;;6.85;59.28;102634.56;5059521;28;20057;-72
2021/04/12 08:59:42;;;;;;;3.67;1.25;;;;;;;6.54;55.78;102643.91;5060060;28;20461;-72
2021/04/12 09:02:55;;;;;;;4.13;1.45;;;;;;;6.65;56.55;102639.00;5069471;28;20118;-71
2021/04/12 09:05:39;;;;;;;2.25;1.38;;;;;;;6.20;57.15;102645.53;5073614;28;20121;-71
2021/04/12 09:08:17;;;;;;;3.72;1.40;;;;;;;5.89;58.26;102643.50;5072706;28;20058;-71
2021/04/12 09:11:07;;;;;;;2.90;1.40;;;;;;;5.95;59.42;102653.66;5084872;28;20134;-71
2021/04/12 09:14:01;;;;;;;1.92;1.33;;;;;;;6.22;58.90;102656.72;5077968;28;20047;-71
2021/04/12 09:16:27;;;;;;;3.90;1.45;;;;;;;6.17;58.63;102656.09;5083731;28;20848;-71
2021/04/12 09:19:40;;;;;;;6.95;1.70;;;;;;;6.09;58.72;102661.66;5079241;28;20502;-72
2021/04/12 09:22:24;;;;;;;5.65;2.15;;;;;;;6.49;60.54;102657.16;5079154;28;20052;-72
2021/04/12 09:25:24;;;;;;;3.70;2.00;;;;;;;6.34;59.91;102660.50;5077150;28;20152;-72
2021/04/12 09:27:50;;;;;;;4.28;1.75;;;;;;;6.55;60.08;102658.63;5084584;28;20056;-72
2021/04/12 09:30:31;;;;;;;7.25;2.88;;;;;;;6.30;58.75;102653.75;5064188;28;20072;-72
2021/04/12 09:33:27;;;;;;;7.63;2.75;;;;;;;6.98;60.08;102663.47;5084092;28;20151;-72
2021/04/12 09:36:12;;;;;;;5.80;2.80;;;;;;;6.84;57.96;102656.31;5091949;28;20101;-72
2021/04/12 09:39:20;;;;;;;9.35;2.28;;;;;;;7.03;58.58;102669.31;5090941;28;20056;-72
2021/04/12 09:42:35;;;;;;;4.30;2.45;;;;;;;6.85;57.20;102671.06;5070467;28;20070;-72
2021/04/12 09:45:36;;;;;;;8.48;2.40;;;;;;;6.89;57.70;102664.78;5004926;28;20594;-73
2021/04/12 09:48:33;;;;;;;5.43;2.55;;;;;;;6.86;58.17;102664.91;5058265;28;20138;-73
2021/04/12 09:51:28;;;;;;;7.53;2.20;;;;;;;6.76;57.73;102676.75;5083144;28;20058;-74
2021/04/12 09:54:13;;;;;;;5.47;2.75;;;;;;;6.76;59.53;102676.75;5065320;28;20056;-73
2021/04/12 09:57:02;;;;;;;5.53;2.92;;;;;;;6.82;59.69;102672.09;5072366;28;20103;-73
2021/04/12 09:59:54;;;;;;;6.18;3.10;;;;;;;7.06;60.00;102684.81;5063930;28;20109;-73
2021/04/12 10:02:36;;;;;;;5.93;3.58;;;;;;;6.73;56.81;102668.16;5080062;28;20129;-73
2021/04/12 10:05:29;;;;;;;6.25;4.00;;;;;;;7.19;57.85;102677.19;5068631;28;20120;-74
2021/04/12 10:08:11;;;;;;;6.53;3.97;;;;;;;7.00;56.40;102675.53;5054948;28;20059;-73
2021/04/12 10:10:53;;;;;;;7.95;4.30;;;;;;;7.27;57.10;102677.63;5089169;28;20051;-73
2021/04/12 10:13:33;;;;;;;8.20;4.85;;;;;;;7.21;57.04;102691.00;5083069;28;20125;-76
2021/04/12 10:16:08;;;;;;;8.23;4.93;;;;;;;7.49;57.30;102675.59;5070926;28;20106;-75
2021/04/12 10:18:42;;;;;;;6.20;5.05;;;;;;;7.60;56.97;102669.78;5068235;28;20109;-74
2021/04/12 10:21:21;;;;;;;6.35;4.40;;;;;;;7.51;56.48;102685.97;5085386;28;20056;-74
2021/04/12 10:24:01;;;;;;;;;;;;;;;7.45;56.61;102688.91;5070681;28;20056;-74
2021/04/12 10:26:37;;;;;;;8.40;3.10;;;;;;;7.76;54.57;102687.25;5059456;28;19923;-74
2021/04/12 10:29:11;;;;;;;4.35;2.17;;;;;;;7.50;54.15;102676.44;5085857;28;20070;-73
2021/04/12 10:31:50;;;;;;;10.45;3.70;;;;;;;7.50;56.34;102694.72;5073457;28;20124;-73
2021/04/12 10:34:35;;;;;;;4.05;3.17;;;;;;;7.39;57.30;102681.38;5080711;28;20044;-73
2021/04/12 10:37:28;;;;;;;7.63;3.65;;;;;;;7.40;58.11;102686.50;5064986;28;20048;-73
2021/04/12 10:40:27;;;;;;;3.03;2.72;;;;;;;7.14;58.81;102698.31;5065131;28;20056;-73
2021/04/12 10:43:17;;;;;;;4.35;3.25;;;;;;;7.33;59.16;102693.84;5043685;28;20052;-73
2021/04/12 10:46:13;;;;;;;2.80;2.13;;;;;;;7.62;58.85;102703.66;5062358;28;20056;-73
2021/04/12 10:49:03;;;;;;;3.50;1.70;;;;;;;8.11;57.44;102687.97;5082867;28;20360;-74
2021/04/12 10:52:10;;;;;;;2.75;1.70;;;;;;;8.35;55.51;102688.38;5036747;28;20097;-73
2021/04/12 10:54:49;;;;;;;3.10;1.65;;;;;;;8.27;56.52;102688.81;5095237;28;20043;-74
2021/04/12 10:57:40;;;;;;;2.47;1.38;;;;;;;8.28;56.34;102694.88;5104327;28;20093;-73
2021/04/12 11:00:35;;;;;;;4.03;1.30;;;;;;;8.19;55.42;102698.00;5063946;28;20048;-72
2021/04/12 11:03:22;;;;;;;2.25;1.45;;;;;;;8.46;55.09;102696.47;5085230;28;20055;-72
2021/04/12 11:06:18;;;;;;;2.58;1.25;;;;;;;7.88;53.21;102703.13;5065729;28;20482;-72
2021/04/12 11:09:06;;;;;;;2.90;1.38;;;;;;;8.33;53.81;102695.47;5053775;28;20052;-72
2021/04/12 11:12:08;;;;;;;2.63;1.40;;;;;;;8.12;53.50;102694.88;5076597;28;20048;-72
2021/04/12 11:14:45;;;;;;;4.53;1.50;;;;;;;8.11;54.17;102699.28;5077492;28;20757;-73
2021/04/12 11:17:26;;;;;;;4.00;1.60;;;;;;;8.02;53.97;102699.78;5078325;28;20055;-72
2021/04/12 11:20:17;;;;;;;2.20;1.30;;;;;;;8.15;54.28;102694.69;5085935;28;20562;-72
2021/04/12 11:22:55;;;;;;;1.73;1.45;;;;;;;8.70;54.45;102696.00;5084775;28;20056;-72
2021/04/12 11:25:40;;;;;;;2.75;1.40;;;;;;;9.02;51.21;102701.19;5051873;28;20044;-72
2021/04/12 11:28:15;;;;;;;2.97;1.67;;;;;;;9.25;49.90;102695.41;5077186;28;20055;-71
2021/04/12 11:30:47;;;;;;;1.88;1.45;;;;;;;9.34;50.21;102694.00;5079032;28;20067;-71
2021/04/12 11:33:34;;;;;;;3.88;1.73;;;;;;;9.01;50.22;102699.47;5065949;28;20063;-71
2021/04/12 11:36:08;;;;;;;2.63;1.60;;;;;;;8.75;50.90;102699.22;5080950;28;20060;-72
2021/04/12 11:38:44;;;;;;;2.95;1.90;;;;;;;8.35;52.28;102705.81;5086575;28;20091;-72
2021/04/12 11:41:13;;;;;;;2.90;1.75;;;;;;;8.56;52.09;102699.41;5069514;28;20059;-71
2021/04/12 11:43:44;;;;;;;3.55;2.10;;;;;;;8.09;52.26;102700.28;5090282;28;20044;-74
2021/04/12 11:46:31;;;;;;;5.78;2.28;;;;;;;8.40;53.31;102709.03;5062170;28;20043;-72
2021/04/12 11:49:19;;;;;;;3.00;2.27;;;;;;;8.98;53.55;102708.34;5085931;28;20052;-72
2021/04/12 11:52:10;;;;;;;2.75;2.35;;;;;;;9.27;52.41;102705.78;5081069;28;20098;-73
2021/04/12 11:54:36;;;;;;;5.00;2.60;;;;;;;9.20;50.51;102704.47;5076808;28;20067;-72
2021/04/12 11:57:35;;;;;;;3.33;2.45;;;;;;;9.16;50.47;102708.22;5088305;28;20057;-73
2021/04/12 12:00:07;;;;;;;5.63;2.80;;;;;;;9.45;49.21;102712.53;5081437;28;20568;-73
2021/04/12 12:02:56;;;;;;;5.00;2.40;;;;;;;9.83;49.47;102716.38;5084762;28;20051;-72
2021/04/12 12:05:30;;;;;;;3.55;2.55;;;;;;;9.60;47.64;102699.44;5083322;28;20056;-72
2021/04/12 12:08:06;;;;;;;5.32;2.10;;;;;;;9.93;47.58;102708.78;5065623;28;20687;-72
2021/04/12 12:10:46;;;;;;;3.90;2.43;;;;;;;9.89;47.96;102715.97;5079927;28;20052;-71
2021/04/12 12:13:31;;;;;;;4.10;2.25;;;;;;;9.86;48.54;102711.78;5084617;28;20446;-71
2021/04/12 12:16:08;;;;;;;4.18;2.10;;;;;;;10.03;47.39;102710.72;5079238;28;20105;-72
2021/04/12 12:18:43;;;;;;;4.78;2.03;;;;;;;9.76;46.94;102715.06;5071462;28;20043;-72
2021/04/12 12:21:24;;;;;;;4.38;1.98;;;;;;;10.00;47.17;102704.84;5080871;28;20145;-71
2021/04/12 12:24:02;;;;;;;3.67;2.22;;;;;;;10.46;46.16;102708.00;5069545;28;20055;-72
2021/04/12 12:26:51;;;;;;;3.70;1.92;;;;;;;10.66;47.32;102722.47;5097160;28;20162;-71
2021/04/12 12:29:26;;;;;;;5.65;2.20;;;;;;;10.57;45.46;102712.56;5084855;28;20390;-71
2021/04/12 12:32:17;;;;;;;5.43;1.92;;;;;;;10.51;47.20;102726.09;5080546;28;20660;-72
2021/04/12 12:35:01;;;;;;;6.75;2.20;;;;;;;10.40;46.99;102721.53;5084000;28;20082;-71
2021/04/12 12:37:55;;;;;;;5.13;2.17;;;;;;;10.14;46.75;102728.41;5059610;28;20064;-71
2021/04/12 12:41:01;;;;;;;2.85;1.90;;;;;;;10.15;47.19;102722.19;5039149;28;20052;-72
2021/04/12 12:43:35;;;;;;;3.72;2.20;;;;;;;9.78;49.00;102724.53;5035417;28;20550;-72
2021/04/12 12:46:21;;;;;;;6.22;2.55;;;;;;;9.94;52.65;102742.78;5071681;28;20124;-73
2021/04/12 12:48:57;;;;;;;2.38;1.90;;;;;;;9.53;53.14;102748.75;5096226;28;20083;-72
2021/04/12 12:51:33;;;;;;;9.15;2.08;;;;;;;9.29;53.32;102757.16;5072074;28;20055;-74
2021/04/12 12:54:06;;;;;;;8.30;3.78;;;;;;;9.20;56.07;102762.91;5056837;28;20051;-73
2021/04/12 12:56:36;;;;;;;4.25;2.60;;;;;;;9.01;57.26;102775.38;5085971;28;20051;-73
2021/04/12 12:59:08;;;;;;;4.60;1.90;;;;;;;8.97;56.60;102790.41;5085672;28;20059;-73
2021/04/12 13:01:38;;;;;;;2.88;1.80;;;;;;;8.75;57.71;102795.19;5065979;28;20492;-73
2021/04/12 13:04:23;;;;;;;5.72;1.60;;;;;;;8.37;57.28;102805.94;5082482;28;20052;-73
2021/04/12 13:06:56;;;;;;;4.40;1.58;;;;;;;7.95;55.80;102818.63;5063609;28;20446;-74